sensor_id;sensor_type;location;lat;lon;timestamp;P1;durP1;ratioP1;P2;durP2;ratioP2
71965;SDS011;59836;52.132;5.442;2022-09-09T00:12:38;0.80;;;0.60;;
71965;SDS011;59836;52.132;5.442;2022-09-09T00:21:23;1.10;;;0.60;;
71965;SDS011;59836;52.132;5.442;2022-09-09T00:30:17;2.17;;;1.10;;
71965;SDS011;59836;52.132;5.442;2022-09-09T00:32:48;2.30;;;0.98;;
71965;SDS011;59836;52.132;5.442;2022-09-09T01:00:16;2.10;;;1.50;;
71965;SDS011;59836;52.132;5.442;2022-09-09T01:06:30;3.60;;;1.70;;
71965;SDS011;59836;52.132;5.442;2022-09-09T01:14:56;4.18;;;1.38;;
71965;SDS011;59836;52.132;5.442;2022-09-09T01:18:23;3.67;;;2.17;;
71965;SDS011;59836;52.132;5.442;2022-09-09T01:20:42;1.97;;;1.40;;
71965;SDS011;59836;52.132;5.442;2022-09-09T01:29:18;5.15;;;2.00;;
71965;SDS011;59836;52.132;5.442;2022-09-09T01:32:37;3.90;;;2.10;;
71965;SDS011;59836;52.132;5.442;2022-09-09T01:49:10;3.33;;;2.30;;
71965;SDS011;59836;52.132;5.442;2022-09-09T01:51:44;3.40;;;1.80;;
71965;SDS011;59836;52.132;5.442;2022-09-09T02:06:38;3.78;;;2.47;;
71965;SDS011;59836;52.132;5.442;2022-09-09T02:09:09;3.42;;;2.47;;
71965;SDS011;59836;52.132;5.442;2022-09-09T02:14:22;3.75;;;2.13;;
71965;SDS011;59836;52.132;5.442;2022-09-09T02:20:13;5.40;;;1.80;;
71965;SDS011;59836;52.132;5.442;2022-09-09T02:31:57;3.57;;;2.50;;
71965;SDS011;59836;52.132;5.442;2022-09-09T02:37:10;2.65;;;1.83;;
71965;SDS011;59836;52.132;5.442;2022-09-09T02:39:42;4.18;;;2.22;;
71965;SDS011;59836;52.132;5.442;2022-09-09T02:42:19;3.53;;;2.50;;
71965;SDS011;59836;52.132;5.442;2022-09-09T02:44:49;3.70;;;2.60;;
71965;SDS011;59836;52.132;5.442;2022-09-09T02:50:25;5.30;;;1.77;;
71965;SDS011;59836;52.132;5.442;2022-09-09T02:56:40;3.17;;;2.30;;
71965;SDS011;59836;52.132;5.442;2022-09-09T02:59:16;3.17;;;2.50;;
71965;SDS011;59836;52.132;5.442;2022-09-09T03:01:50;4.65;;;2.60;;
71965;SDS011;59836;52.132;5.442;2022-09-09T03:04:31;5.78;;;2.80;;
71965;SDS011;59836;52.132;5.442;2022-09-09T03:06:58;3.45;;;2.55;;
71965;SDS011;59836;52.132;5.442;2022-09-09T03:09:32;3.55;;;2.55;;
71965;SDS011;59836;52.132;5.442;2022-09-09T03:12:13;5.33;;;2.50;;
71965;SDS011;59836;52.132;5.442;2022-09-09T03:14:47;5.80;;;2.90;;
71965;SDS011;59836;52.132;5.442;2022-09-09T03:17:28;3.53;;;2.47;;
71965;SDS011;59836;52.132;5.442;2022-09-09T03:20:08;3.40;;;2.30;;
71965;SDS011;59836;52.132;5.442;2022-09-09T03:22:43;3.50;;;2.72;;
71965;SDS011;59836;52.132;5.442;2022-09-09T03:25:18;3.90;;;2.50;;
71965;SDS011;59836;52.132;5.442;2022-09-09T03:27:44;3.15;;;2.47;;
71965;SDS011;59836;52.132;5.442;2022-09-09T03:30:11;3.95;;;2.88;;
71965;SDS011;59836;52.132;5.442;2022-09-09T03:38:04;4.27;;;3.13;;
71965;SDS011;59836;52.132;5.442;2022-09-09T03:43:35;4.57;;;2.53;;
71965;SDS011;59836;52.132;5.442;2022-09-09T03:46:04;5.03;;;3.35;;
71965;SDS011;59836;52.132;5.442;2022-09-09T03:48:44;5.78;;;3.35;;
71965;SDS011;59836;52.132;5.442;2022-09-09T03:51:12;4.10;;;3.20;;
71965;SDS011;59836;52.132;5.442;2022-09-09T03:56:18;3.35;;;2.90;;
71965;SDS011;59836;52.132;5.442;2022-09-09T04:15:41;4.43;;;2.83;;
71965;SDS011;59836;52.132;5.442;2022-09-09T04:18:26;3.90;;;2.97;;
71965;SDS011;59836;52.132;5.442;2022-09-09T04:23:57;4.68;;;3.00;;
71965;SDS011;59836;52.132;5.442;2022-09-09T04:26:27;4.57;;;3.17;;
71965;SDS011;59836;52.132;5.442;2022-09-09T04:29:12;5.47;;;2.80;;
71965;SDS011;59836;52.132;5.442;2022-09-09T04:31:43;5.40;;;2.83;;
71965;SDS011;59836;52.132;5.442;2022-09-09T04:34:16;4.53;;;3.10;;
71965;SDS011;59836;52.132;5.442;2022-09-09T04:36:43;5.75;;;3.45;;
71965;SDS011;59836;52.132;5.442;2022-09-09T04:42:10;4.80;;;2.80;;
71965;SDS011;59836;52.132;5.442;2022-09-09T04:44:43;3.73;;;2.40;;
71965;SDS011;59836;52.132;5.442;2022-09-09T04:47:11;5.57;;;2.53;;
71965;SDS011;59836;52.132;5.442;2022-09-09T04:49:51;4.90;;;2.20;;
71965;SDS011;59836;52.132;5.442;2022-09-09T04:52:22;4.45;;;2.40;;
71965;SDS011;59836;52.132;5.442;2022-09-09T05:01:08;4.53;;;2.85;;
71965;SDS011;59836;52.132;5.442;2022-09-09T05:06:59;3.22;;;2.20;;
71965;SDS011;59836;52.132;5.442;2022-09-09T05:09:35;5.00;;;2.83;;
71965;SDS011;59836;52.132;5.442;2022-09-09T05:12:02;3.10;;;2.50;;
71965;SDS011;59836;52.132;5.442;2022-09-09T05:17:17;4.47;;;2.60;;
71965;SDS011;59836;52.132;5.442;2022-09-09T05:19:50;3.90;;;2.60;;
71965;SDS011;59836;52.132;5.442;2022-09-09T05:22:20;5.18;;;2.20;;
71965;SDS011;59836;52.132;5.442;2022-09-09T05:24:51;3.30;;;2.23;;
71965;SDS011;59836;52.132;5.442;2022-09-09T05:27:19;3.53;;;1.90;;
71965;SDS011;59836;52.132;5.442;2022-09-09T05:29:45;3.40;;;2.30;;
71965;SDS011;59836;52.132;5.442;2022-09-09T05:32:16;5.65;;;2.72;;
71965;SDS011;59836;52.132;5.442;2022-09-09T05:34:56;6.07;;;2.47;;
71965;SDS011;59836;52.132;5.442;2022-09-09T05:37:23;6.07;;;2.87;;
71965;SDS011;59836;52.132;5.442;2022-09-09T05:40:01;3.47;;;2.20;;
71965;SDS011;59836;52.132;5.442;2022-09-09T05:45:30;7.53;;;2.35;;
71965;SDS011;59836;52.132;5.442;2022-09-09T05:47:57;5.18;;;2.50;;
71965;SDS011;59836;52.132;5.442;2022-09-09T05:53:20;6.13;;;2.42;;
71965;SDS011;59836;52.132;5.442;2022-09-09T05:56:01;7.10;;;2.00;;
71965;SDS011;59836;52.132;5.442;2022-09-09T05:58:33;4.35;;;1.83;;
71965;SDS011;59836;52.132;5.442;2022-09-09T06:01:03;5.25;;;1.90;;
71965;SDS011;59836;52.132;5.442;2022-09-09T06:03:46;6.87;;;2.33;;
71965;SDS011;59836;52.132;5.442;2022-09-09T06:06:23;3.50;;;2.17;;
71965;SDS011;59836;52.132;5.442;2022-09-09T06:08:58;4.25;;;2.15;;
71965;SDS011;59836;52.132;5.442;2022-09-09T06:11:28;6.25;;;2.38;;
71965;SDS011;59836;52.132;5.442;2022-09-09T06:13:59;4.90;;;2.17;;
71965;SDS011;59836;52.132;5.442;2022-09-09T06:16:39;4.97;;;2.10;;
71965;SDS011;59836;52.132;5.442;2022-09-09T06:19:12;6.15;;;2.67;;
71965;SDS011;59836;52.132;5.442;2022-09-09T06:21:39;6.38;;;3.08;;
71965;SDS011;59836;52.132;5.442;2022-09-09T06:24:08;6.00;;;2.85;;
71965;SDS011;59836;52.132;5.442;2022-09-09T06:31:51;3.92;;;2.20;;
71965;SDS011;59836;52.132;5.442;2022-09-09T06:34:22;2.70;;;2.10;;
71965;SDS011;59836;52.132;5.442;2022-09-09T06:36:57;7.45;;;2.50;;
71965;SDS011;59836;52.132;5.442;2022-09-09T06:39:25;3.35;;;2.38;;
71965;SDS011;59836;52.132;5.442;2022-09-09T06:41:52;5.67;;;2.37;;
71965;SDS011;59836;52.132;5.442;2022-09-09T06:44:26;4.60;;;1.65;;
71965;SDS011;59836;52.132;5.442;2022-09-09T06:47:00;7.32;;;1.98;;
71965;SDS011;59836;52.132;5.442;2022-09-09T06:49:30;5.47;;;2.13;;
71965;SDS011;59836;52.132;5.442;2022-09-09T06:54:56;7.33;;;2.30;;
71965;SDS011;59836;52.132;5.442;2022-09-09T07:00:11;6.90;;;2.08;;
71965;SDS011;59836;52.132;5.442;2022-09-09T07:02:41;6.70;;;2.10;;
71965;SDS011;59836;52.132;5.442;2022-09-09T07:05:19;4.80;;;1.60;;
71965;SDS011;59836;52.132;5.442;2022-09-09T07:07:55;5.67;;;2.03;;
71965;SDS011;59836;52.132;5.442;2022-09-09T07:10:33;4.93;;;1.52;;
71965;SDS011;59836;52.132;5.442;2022-09-09T07:13:04;5.10;;;1.90;;
71965;SDS011;59836;52.132;5.442;2022-09-09T07:15:48;4.80;;;2.03;;
71965;SDS011;59836;52.132;5.442;2022-09-09T07:18:15;7.72;;;1.80;;
71965;SDS011;59836;52.132;5.442;2022-09-09T07:23:47;5.90;;;1.65;;
71965;SDS011;59836;52.132;5.442;2022-09-09T07:26:27;7.22;;;1.67;;
71965;SDS011;59836;52.132;5.442;2022-09-09T07:31:50;6.93;;;1.88;;
71965;SDS011;59836;52.132;5.442;2022-09-09T07:37:14;5.70;;;2.00;;
71965;SDS011;59836;52.132;5.442;2022-09-09T07:39:45;4.15;;;1.55;;
71965;SDS011;59836;52.132;5.442;2022-09-09T07:42:13;5.85;;;2.00;;
71965;SDS011;59836;52.132;5.442;2022-09-09T07:47:31;6.87;;;1.90;;
71965;SDS011;59836;52.132;5.442;2022-09-09T07:50:03;6.90;;;1.73;;
71965;SDS011;59836;52.132;5.442;2022-09-09T07:55:32;6.20;;;1.77;;
71965;SDS011;59836;52.132;5.442;2022-09-09T08:00:33;5.43;;;2.03;;
71965;SDS011;59836;52.132;5.442;2022-09-09T08:03:02;6.50;;;1.88;;
71965;SDS011;59836;52.132;5.442;2022-09-09T08:08:36;4.88;;;1.75;;
71965;SDS011;59836;52.132;5.442;2022-09-09T08:13:55;7.43;;;1.60;;
71965;SDS011;59836;52.132;5.442;2022-09-09T08:16:33;7.20;;;2.58;;
71965;SDS011;59836;52.132;5.442;2022-09-09T08:19:04;5.07;;;1.55;;
71965;SDS011;59836;52.132;5.442;2022-09-09T08:21:38;5.82;;;1.80;;
71965;SDS011;59836;52.132;5.442;2022-09-09T08:27:19;4.43;;;2.10;;
71965;SDS011;59836;52.132;5.442;2022-09-09T08:29:46;7.15;;;1.63;;
71965;SDS011;59836;52.132;5.442;2022-09-09T08:32:14;4.82;;;1.58;;
71965;SDS011;59836;52.132;5.442;2022-09-09T08:34:49;4.65;;;1.40;;
71965;SDS011;59836;52.132;5.442;2022-09-09T08:37:20;5.47;;;1.45;;
71965;SDS011;59836;52.132;5.442;2022-09-09T08:39:47;5.10;;;1.33;;
71965;SDS011;59836;52.132;5.442;2022-09-09T08:51:30;5.45;;;2.00;;
71965;SDS011;59836;52.132;5.442;2022-09-09T09:00:18;2.83;;;1.60;;
71965;SDS011;59836;52.132;5.442;2022-09-09T09:05:30;4.45;;;1.75;;
71965;SDS011;59836;52.132;5.442;2022-09-09T09:10:59;3.25;;;1.48;;
71965;SDS011;59836;52.132;5.442;2022-09-09T09:16:29;4.72;;;1.23;;
71965;SDS011;59836;52.132;5.442;2022-09-09T09:19:20;5.97;;;1.50;;
71965;SDS011;59836;52.132;5.442;2022-09-09T09:21:51;3.47;;;1.10;;
71965;SDS011;59836;52.132;5.442;2022-09-09T09:36:13;6.63;;;2.00;;
71965;SDS011;59836;52.132;5.442;2022-09-09T09:38:55;4.70;;;1.80;;
71965;SDS011;59836;52.132;5.442;2022-09-09T09:41:44;5.03;;;1.65;;
71965;SDS011;59836;52.132;5.442;2022-09-09T09:52:32;4.40;;;1.90;;
71965;SDS011;59836;52.132;5.442;2022-09-09T09:55:12;5.00;;;1.60;;
71965;SDS011;59836;52.132;5.442;2022-09-09T09:57:41;5.55;;;2.20;;
71965;SDS011;59836;52.132;5.442;2022-09-09T10:00:19;5.18;;;1.83;;
71965;SDS011;59836;52.132;5.442;2022-09-09T10:02:48;3.00;;;1.60;;
71965;SDS011;59836;52.132;5.442;2022-09-09T10:05:23;5.32;;;1.70;;
71965;SDS011;59836;52.132;5.442;2022-09-09T10:08:10;6.53;;;2.10;;
71965;SDS011;59836;52.132;5.442;2022-09-09T10:13:48;6.50;;;1.77;;
71965;SDS011;59836;52.132;5.442;2022-09-09T10:16:38;3.30;;;1.50;;
71965;SDS011;59836;52.132;5.442;2022-09-09T10:19:29;8.15;;;1.98;;
71965;SDS011;59836;52.132;5.442;2022-09-09T10:21:57;6.50;;;1.90;;
71965;SDS011;59836;52.132;5.442;2022-09-09T10:36:12;5.53;;;1.85;;
71965;SDS011;59836;52.132;5.442;2022-09-09T10:39:05;4.53;;;1.80;;
71965;SDS011;59836;52.132;5.442;2022-09-09T10:41:53;2.50;;;1.45;;
71965;SDS011;59836;52.132;5.442;2022-09-09T10:44:40;7.27;;;1.90;;
71965;SDS011;59836;52.132;5.442;2022-09-09T10:56:02;4.65;;;1.98;;
71965;SDS011;59836;52.132;5.442;2022-09-09T11:01:41;4.30;;;2.05;;
71965;SDS011;59836;52.132;5.442;2022-09-09T11:04:27;5.32;;;1.63;;
71965;SDS011;59836;52.132;5.442;2022-09-09T11:07:02;4.22;;;1.10;;
71965;SDS011;59836;52.132;5.442;2022-09-09T11:09:41;4.57;;;2.10;;
71965;SDS011;59836;52.132;5.442;2022-09-09T11:12:18;4.90;;;1.80;;
71965;SDS011;59836;52.132;5.442;2022-09-09T11:14:50;4.85;;;2.03;;
71965;SDS011;59836;52.132;5.442;2022-09-09T11:17:26;5.07;;;2.08;;
71965;SDS011;59836;52.132;5.442;2022-09-09T11:20:15;4.25;;;2.10;;
71965;SDS011;59836;52.132;5.442;2022-09-09T11:22:43;6.43;;;2.20;;
71965;SDS011;59836;52.132;5.442;2022-09-09T11:25:21;5.63;;;2.10;;
71965;SDS011;59836;52.132;5.442;2022-09-09T11:42:46;4.03;;;1.75;;
71965;SDS011;59836;52.132;5.442;2022-09-09T11:45:22;3.75;;;1.50;;
71965;SDS011;59836;52.132;5.442;2022-09-09T11:47:57;4.72;;;1.85;;
71965;SDS011;59836;52.132;5.442;2022-09-09T11:55:41;4.00;;;1.55;;
71965;SDS011;59836;52.132;5.442;2022-09-09T12:00:41;5.88;;;1.83;;
71965;SDS011;59836;52.132;5.442;2022-09-09T12:06:11;5.17;;;1.73;;
71965;SDS011;59836;52.132;5.442;2022-09-09T12:08:53;7.32;;;1.80;;
71965;SDS011;59836;52.132;5.442;2022-09-09T12:11:31;3.63;;;1.85;;
71965;SDS011;59836;52.132;5.442;2022-09-09T12:13:58;3.70;;;1.92;;
71965;SDS011;59836;52.132;5.442;2022-09-09T12:16:34;4.95;;;1.83;;
71965;SDS011;59836;52.132;5.442;2022-09-09T12:19:12;5.77;;;2.00;;
71965;SDS011;59836;52.132;5.442;2022-09-09T12:22:26;4.30;;;1.90;;
71965;SDS011;59836;52.132;5.442;2022-09-09T12:24:55;3.20;;;1.75;;
71965;SDS011;59836;52.132;5.442;2022-09-09T12:27:33;5.43;;;1.98;;
71965;SDS011;59836;52.132;5.442;2022-09-09T12:30:08;3.90;;;1.65;;
71965;SDS011;59836;52.132;5.442;2022-09-09T12:32:38;4.20;;;1.90;;
71965;SDS011;59836;52.132;5.442;2022-09-09T12:35:12;3.45;;;2.22;;
71965;SDS011;59836;52.132;5.442;2022-09-09T12:40:24;4.95;;;1.98;;
71965;SDS011;59836;52.132;5.442;2022-09-09T12:43:01;6.18;;;2.00;;
71965;SDS011;59836;52.132;5.442;2022-09-09T12:45:43;4.77;;;2.03;;
71965;SDS011;59836;52.132;5.442;2022-09-09T12:48:12;7.28;;;2.15;;
71965;SDS011;59836;52.132;5.442;2022-09-09T12:50:45;3.75;;;2.00;;
71965;SDS011;59836;52.132;5.442;2022-09-09T12:58:23;3.80;;;2.73;;
71965;SDS011;59836;52.132;5.442;2022-09-09T13:00:52;2.95;;;1.95;;
71965;SDS011;59836;52.132;5.442;2022-09-09T13:03:23;4.22;;;2.10;;
71965;SDS011;59836;52.132;5.442;2022-09-09T13:05:51;3.50;;;2.20;;
71965;SDS011;59836;52.132;5.442;2022-09-09T13:08:19;3.55;;;2.38;;
71965;SDS011;59836;52.132;5.442;2022-09-09T13:10:54;3.90;;;2.20;;
71965;SDS011;59836;52.132;5.442;2022-09-09T13:13:30;5.30;;;2.25;;
71965;SDS011;59836;52.132;5.442;2022-09-09T13:16:02;4.45;;;2.25;;
71965;SDS011;59836;52.132;5.442;2022-09-09T13:18:33;3.97;;;2.08;;
71965;SDS011;59836;52.132;5.442;2022-09-09T13:21:06;5.13;;;2.50;;
71965;SDS011;59836;52.132;5.442;2022-09-09T13:23:34;5.27;;;1.97;;
71965;SDS011;59836;52.132;5.442;2022-09-09T13:26:03;3.28;;;2.10;;
71965;SDS011;59836;52.132;5.442;2022-09-09T13:28:32;7.47;;;2.10;;
71965;SDS011;59836;52.132;5.442;2022-09-09T13:31:00;3.75;;;1.80;;
71965;SDS011;59836;52.132;5.442;2022-09-09T13:33:36;4.55;;;2.05;;
71965;SDS011;59836;52.132;5.442;2022-09-09T13:36:05;4.80;;;2.23;;
71965;SDS011;59836;52.132;5.442;2022-09-09T13:38:38;4.25;;;2.38;;
71965;SDS011;59836;52.132;5.442;2022-09-09T13:41:19;4.70;;;1.40;;
71965;SDS011;59836;52.132;5.442;2022-09-09T13:43:50;4.78;;;2.30;;
71965;SDS011;59836;52.132;5.442;2022-09-09T13:51:37;6.80;;;2.90;;
71965;SDS011;59836;52.132;5.442;2022-09-09T13:54:06;4.25;;;1.65;;
71965;SDS011;59836;52.132;5.442;2022-09-09T13:56:36;5.15;;;2.33;;
71965;SDS011;59836;52.132;5.442;2022-09-09T13:59:05;4.68;;;2.50;;
71965;SDS011;59836;52.132;5.442;2022-09-09T14:01:35;4.97;;;2.27;;
71965;SDS011;59836;52.132;5.442;2022-09-09T14:04:03;9.77;;;2.40;;
71965;SDS011;59836;52.132;5.442;2022-09-09T14:06:32;4.63;;;2.00;;
71965;SDS011;59836;52.132;5.442;2022-09-09T14:09:03;4.28;;;1.63;;
71965;SDS011;59836;52.132;5.442;2022-09-09T14:11:32;6.22;;;2.50;;
71965;SDS011;59836;52.132;5.442;2022-09-09T14:13:58;3.67;;;2.10;;
71965;SDS011;59836;52.132;5.442;2022-09-09T14:16:27;4.85;;;2.15;;
71965;SDS011;59836;52.132;5.442;2022-09-09T14:18:58;5.40;;;1.85;;
71965;SDS011;59836;52.132;5.442;2022-09-09T14:21:26;4.25;;;2.50;;
71965;SDS011;59836;52.132;5.442;2022-09-09T14:23:53;4.78;;;2.10;;
71965;SDS011;59836;52.132;5.442;2022-09-09T14:26:21;3.23;;;2.20;;
71965;SDS011;59836;52.132;5.442;2022-09-09T14:28:48;4.35;;;2.35;;
71965;SDS011;59836;52.132;5.442;2022-09-09T14:31:20;6.65;;;2.25;;
71965;SDS011;59836;52.132;5.442;2022-09-09T14:33:47;5.93;;;2.15;;
71965;SDS011;59836;52.132;5.442;2022-09-09T14:36:14;4.05;;;2.03;;
71965;SDS011;59836;52.132;5.442;2022-09-09T14:38:41;4.20;;;2.23;;
71965;SDS011;59836;52.132;5.442;2022-09-09T14:41:13;5.18;;;2.05;;
71965;SDS011;59836;52.132;5.442;2022-09-09T14:43:45;3.53;;;1.55;;
71965;SDS011;59836;52.132;5.442;2022-09-09T14:46:15;4.15;;;2.47;;
71965;SDS011;59836;52.132;5.442;2022-09-09T14:51:46;4.60;;;2.07;;
71965;SDS011;59836;52.132;5.442;2022-09-09T14:54:13;6.85;;;2.42;;
71965;SDS011;59836;52.132;5.442;2022-09-09T14:56:40;7.28;;;3.50;;
71965;SDS011;59836;52.132;5.442;2022-09-09T14:59:07;6.43;;;2.58;;
71965;SDS011;59836;52.132;5.442;2022-09-09T15:01:33;4.95;;;2.58;;
71965;SDS011;59836;52.132;5.442;2022-09-09T15:04:03;3.30;;;2.10;;
71965;SDS011;59836;52.132;5.442;2022-09-09T15:06:32;5.03;;;2.40;;
71965;SDS011;59836;52.132;5.442;2022-09-09T15:09:00;3.47;;;2.40;;
71965;SDS011;59836;52.132;5.442;2022-09-09T15:11:27;4.72;;;2.80;;
71965;SDS011;59836;52.132;5.442;2022-09-09T15:13:57;3.38;;;2.42;;
71965;SDS011;59836;52.132;5.442;2022-09-09T15:16:25;3.53;;;2.10;;
71965;SDS011;59836;52.132;5.442;2022-09-09T15:18:57;4.13;;;2.40;;
71965;SDS011;59836;52.132;5.442;2022-09-09T15:21:35;6.68;;;2.88;;
71965;SDS011;59836;52.132;5.442;2022-09-09T15:24:05;4.65;;;2.00;;
71965;SDS011;59836;52.132;5.442;2022-09-09T15:29:05;2.40;;;1.40;;
71965;SDS011;59836;52.132;5.442;2022-09-09T15:31:49;2.63;;;1.42;;
71965;SDS011;59836;52.132;5.442;2022-09-09T15:34:21;3.42;;;1.80;;
71965;SDS011;59836;52.132;5.442;2022-09-09T15:36:48;2.58;;;1.45;;
71965;SDS011;59836;52.132;5.442;2022-09-09T15:39:28;2.88;;;1.73;;
71965;SDS011;59836;52.132;5.442;2022-09-09T15:41:55;2.90;;;1.60;;
71965;SDS011;59836;52.132;5.442;2022-09-09T15:44:29;3.38;;;1.75;;
71965;SDS011;59836;52.132;5.442;2022-09-09T15:46:57;1.98;;;1.30;;
71965;SDS011;59836;52.132;5.442;2022-09-09T15:49:24;2.67;;;1.33;;
71965;SDS011;59836;52.132;5.442;2022-09-09T15:52:10;2.10;;;1.50;;
71965;SDS011;59836;52.132;5.442;2022-09-09T15:54:40;3.07;;;1.63;;
71965;SDS011;59836;52.132;5.442;2022-09-09T15:59:46;2.80;;;1.38;;
71965;SDS011;59836;52.132;5.442;2022-09-09T16:04:54;2.53;;;1.20;;
71965;SDS011;59836;52.132;5.442;2022-09-09T16:10:03;2.25;;;1.65;;
71965;SDS011;59836;52.132;5.442;2022-09-09T16:12:35;3.38;;;0.95;;
71965;SDS011;59836;52.132;5.442;2022-09-09T16:15:18;4.18;;;1.75;;
71965;SDS011;59836;52.132;5.442;2022-09-09T16:17:55;3.17;;;1.70;;
71965;SDS011;59836;52.132;5.442;2022-09-09T16:27:25;3.58;;;1.40;;
71965;SDS011;59836;52.132;5.442;2022-09-09T16:29:53;3.33;;;1.50;;
71965;SDS011;59836;52.132;5.442;2022-09-09T16:32:23;1.98;;;1.10;;
71965;SDS011;59836;52.132;5.442;2022-09-09T16:34:50;3.87;;;1.50;;
71965;SDS011;59836;52.132;5.442;2022-09-09T16:37:28;5.10;;;1.55;;
71965;SDS011;59836;52.132;5.442;2022-09-09T16:39:55;3.25;;;1.70;;
71965;SDS011;59836;52.132;5.442;2022-09-09T16:42:26;2.47;;;1.42;;
71965;SDS011;59836;52.132;5.442;2022-09-09T16:44:52;2.20;;;1.10;;
71965;SDS011;59836;52.132;5.442;2022-09-09T16:47:22;2.67;;;1.50;;
71965;SDS011;59836;52.132;5.442;2022-09-09T16:49:49;3.65;;;1.58;;
71965;SDS011;59836;52.132;5.442;2022-09-09T16:52:16;3.08;;;1.25;;
71965;SDS011;59836;52.132;5.442;2022-09-09T16:54:47;3.10;;;1.13;;
71965;SDS011;59836;52.132;5.442;2022-09-09T16:59:45;3.43;;;1.63;;
71965;SDS011;59836;52.132;5.442;2022-09-09T17:02:25;2.42;;;1.60;;
71965;SDS011;59836;52.132;5.442;2022-09-09T17:07:39;3.15;;;2.10;;
71965;SDS011;59836;52.132;5.442;2022-09-09T17:10:06;2.65;;;1.67;;
71965;SDS011;59836;52.132;5.442;2022-09-09T17:12:43;3.23;;;1.50;;
71965;SDS011;59836;52.132;5.442;2022-09-09T17:15:28;4.95;;;1.60;;
71965;SDS011;59836;52.132;5.442;2022-09-09T17:17:55;4.22;;;1.73;;
71965;SDS011;59836;52.132;5.442;2022-09-09T17:23:18;3.58;;;1.88;;
71965;SDS011;59836;52.132;5.442;2022-09-09T17:28:39;5.53;;;2.13;;
71965;SDS011;59836;52.132;5.442;2022-09-09T17:31:07;2.38;;;1.70;;
71965;SDS011;59836;52.132;5.442;2022-09-09T17:33:39;3.60;;;2.10;;
71965;SDS011;59836;52.132;5.442;2022-09-09T17:36:24;4.13;;;2.08;;
71965;SDS011;59836;52.132;5.442;2022-09-09T17:42:02;5.00;;;2.47;;
71965;SDS011;59836;52.132;5.442;2022-09-09T17:44:38;4.25;;;2.42;;
71965;SDS011;59836;52.132;5.442;2022-09-09T17:47:06;4.47;;;2.72;;
71965;SDS011;59836;52.132;5.442;2022-09-09T17:49:46;4.97;;;2.63;;
71965;SDS011;59836;52.132;5.442;2022-09-09T17:52:13;5.70;;;2.50;;
71965;SDS011;59836;52.132;5.442;2022-09-09T17:54:42;5.15;;;2.33;;
71965;SDS011;59836;52.132;5.442;2022-09-09T17:57:12;5.43;;;2.35;;
71965;SDS011;59836;52.132;5.442;2022-09-09T18:05:29;3.00;;;2.33;;
71965;SDS011;59836;52.132;5.442;2022-09-09T18:08:04;3.90;;;2.40;;
71965;SDS011;59836;52.132;5.442;2022-09-09T18:10:36;3.88;;;2.63;;
71965;SDS011;59836;52.132;5.442;2022-09-09T18:13:02;3.60;;;2.78;;
71965;SDS011;59836;52.132;5.442;2022-09-09T18:15:29;5.22;;;2.53;;
71965;SDS011;59836;52.132;5.442;2022-09-09T18:18:26;7.03;;;2.50;;
71965;SDS011;59836;52.132;5.442;2022-09-09T18:23:44;4.45;;;1.83;;
71965;SDS011;59836;52.132;5.442;2022-09-09T18:26:23;3.83;;;2.00;;
71965;SDS011;59836;52.132;5.442;2022-09-09T18:31:56;4.73;;;2.50;;
71965;SDS011;59836;52.132;5.442;2022-09-09T18:34:23;2.97;;;2.30;;
71965;SDS011;59836;52.132;5.442;2022-09-09T18:36:53;4.85;;;2.08;;
71965;SDS011;59836;52.132;5.442;2022-09-09T18:39:25;5.90;;;2.50;;
71965;SDS011;59836;52.132;5.442;2022-09-09T18:45:02;4.20;;;2.30;;
71965;SDS011;59836;52.132;5.442;2022-09-09T18:47:30;3.88;;;2.20;;
71965;SDS011;59836;52.132;5.442;2022-09-09T18:52:57;3.50;;;1.88;;
71965;SDS011;59836;52.132;5.442;2022-09-09T18:55:24;3.25;;;2.15;;
71965;SDS011;59836;52.132;5.442;2022-09-09T18:58:07;4.70;;;2.43;;
71965;SDS011;59836;52.132;5.442;2022-09-09T19:00:36;4.75;;;2.28;;
71965;SDS011;59836;52.132;5.442;2022-09-09T19:03:03;4.57;;;2.33;;
71965;SDS011;59836;52.132;5.442;2022-09-09T19:08:10;5.35;;;2.58;;
71965;SDS011;59836;52.132;5.442;2022-09-09T19:10:39;5.00;;;2.77;;
71965;SDS011;59836;52.132;5.442;2022-09-09T19:18:53;5.57;;;2.78;;
71965;SDS011;59836;52.132;5.442;2022-09-09T19:21:28;4.03;;;2.58;;
71965;SDS011;59836;52.132;5.442;2022-09-09T19:37:31;3.80;;;2.60;;
71965;SDS011;59836;52.132;5.442;2022-09-09T19:42:41;6.78;;;3.28;;
71965;SDS011;59836;52.132;5.442;2022-09-09T19:45:16;6.40;;;2.75;;
71965;SDS011;59836;52.132;5.442;2022-09-09T19:47:55;4.97;;;3.10;;
71965;SDS011;59836;52.132;5.442;2022-09-09T19:50:38;3.97;;;2.80;;
71965;SDS011;59836;52.132;5.442;2022-09-09T19:56:06;6.15;;;3.10;;
71965;SDS011;59836;52.132;5.442;2022-09-09T19:58:36;6.93;;;2.85;;
71965;SDS011;59836;52.132;5.442;2022-09-09T20:01:16;4.68;;;3.15;;
71965;SDS011;59836;52.132;5.442;2022-09-09T20:03:52;7.20;;;3.60;;
71965;SDS011;59836;52.132;5.442;2022-09-09T20:12:11;6.55;;;3.97;;
71965;SDS011;59836;52.132;5.442;2022-09-09T20:14:51;7.55;;;3.90;;
71965;SDS011;59836;52.132;5.442;2022-09-09T20:17:28;4.90;;;3.63;;
71965;SDS011;59836;52.132;5.442;2022-09-09T20:20:01;6.33;;;3.97;;
71965;SDS011;59836;52.132;5.442;2022-09-09T20:22:33;6.85;;;3.40;;
71965;SDS011;59836;52.132;5.442;2022-09-09T20:24:59;5.43;;;4.15;;
71965;SDS011;59836;52.132;5.442;2022-09-09T20:27:35;10.23;;;4.13;;
71965;SDS011;59836;52.132;5.442;2022-09-09T20:41:25;7.72;;;4.10;;
71965;SDS011;59836;52.132;5.442;2022-09-09T20:43:54;5.90;;;3.83;;
71965;SDS011;59836;52.132;5.442;2022-09-09T20:46:34;4.87;;;3.70;;
71965;SDS011;59836;52.132;5.442;2022-09-09T20:49:09;6.60;;;3.85;;
71965;SDS011;59836;52.132;5.442;2022-09-09T20:51:47;7.50;;;3.80;;
71965;SDS011;59836;52.132;5.442;2022-09-09T20:57:13;4.88;;;4.07;;
71965;SDS011;59836;52.132;5.442;2022-09-09T21:02:57;6.53;;;3.92;;
71965;SDS011;59836;52.132;5.442;2022-09-09T21:05:23;5.93;;;4.00;;
71965;SDS011;59836;52.132;5.442;2022-09-09T21:07:51;5.32;;;4.13;;
71965;SDS011;59836;52.132;5.442;2022-09-09T21:10:30;6.25;;;4.47;;
71965;SDS011;59836;52.132;5.442;2022-09-09T21:15:28;5.72;;;4.53;;
71965;SDS011;59836;52.132;5.442;2022-09-09T21:23:46;8.15;;;5.00;;
71965;SDS011;59836;52.132;5.442;2022-09-09T21:29:15;7.82;;;5.40;;
71965;SDS011;59836;52.132;5.442;2022-09-09T21:31:51;8.50;;;5.47;;
71965;SDS011;59836;52.132;5.442;2022-09-09T21:37:21;8.18;;;6.28;;
71965;SDS011;59836;52.132;5.442;2022-09-09T21:45:40;9.95;;;6.15;;
71965;SDS011;59836;52.132;5.442;2022-09-09T21:59:46;8.73;;;6.80;;
71965;SDS011;59836;52.132;5.442;2022-09-09T22:02:19;10.57;;;7.70;;
71965;SDS011;59836;52.132;5.442;2022-09-09T22:07:38;9.97;;;7.37;;
71965;SDS011;59836;52.132;5.442;2022-09-09T22:13:15;10.50;;;7.20;;
71965;SDS011;59836;52.132;5.442;2022-09-09T22:15:52;11.18;;;7.35;;
71965;SDS011;59836;52.132;5.442;2022-09-09T22:18:24;10.60;;;7.93;;
71965;SDS011;59836;52.132;5.442;2022-09-09T22:20:50;10.53;;;7.60;;
71965;SDS011;59836;52.132;5.442;2022-09-09T22:23:17;11.15;;;8.00;;
71965;SDS011;59836;52.132;5.442;2022-09-09T22:25:47;11.38;;;7.97;;
71965;SDS011;59836;52.132;5.442;2022-09-09T22:28:22;10.48;;;8.30;;
71965;SDS011;59836;52.132;5.442;2022-09-09T22:31:01;11.15;;;8.27;;
71965;SDS011;59836;52.132;5.442;2022-09-09T22:33:27;11.10;;;8.60;;
71965;SDS011;59836;52.132;5.442;2022-09-09T22:35:59;13.27;;;8.63;;
71965;SDS011;59836;52.132;5.442;2022-09-09T22:38:32;9.93;;;7.82;;
71965;SDS011;59836;52.132;5.442;2022-09-09T22:41:02;11.77;;;9.32;;
71965;SDS011;59836;52.132;5.442;2022-09-09T22:46:27;10.73;;;8.00;;
71965;SDS011;59836;52.132;5.442;2022-09-09T22:49:12;11.10;;;8.57;;
71965;SDS011;59836;52.132;5.442;2022-09-09T22:54:15;11.00;;;7.90;;
71965;SDS011;59836;52.132;5.442;2022-09-09T22:56:48;10.55;;;8.60;;
71965;SDS011;59836;52.132;5.442;2022-09-09T23:05:05;10.73;;;8.63;;
71965;SDS011;59836;52.132;5.442;2022-09-09T23:07:40;12.40;;;7.72;;